createdAt,value
2018-07-12T00:00:32.825Z,71.00
2018-07-12T00:05:35.021Z,70.40
2018-07-12T00:10:37.213Z,70.50
2018-07-12T00:20:41.840Z,70.90
2018-07-12T00:25:44.037Z,70.20
2018-07-12T00:30:46.212Z,70.40
2018-07-12T00:35:48.431Z,70.10
2018-07-12T00:40:50.647Z,70.20
2018-07-12T00:45:52.857Z,70.20
2018-07-12T00:50:55.057Z,70.00
2018-07-12T00:55:57.243Z,69.90
2018-07-12T01:00:59.436Z,69.90
2018-07-12T01:06:01.613Z,69.80
2018-07-12T01:11:03.808Z,70.00
2018-07-12T01:16:06.006Z,69.90
2018-07-12T01:21:08.206Z,69.90
2018-07-12T01:26:10.399Z,70.30
2018-07-12T01:31:12.592Z,69.90
2018-07-12T01:36:14.810Z,70.10
2018-07-12T01:41:16.980Z,70.00
2018-07-12T01:46:19.180Z,69.80
2018-07-12T01:51:21.377Z,69.90
2018-07-12T01:56:23.564Z,70.00
2018-07-12T02:01:25.752Z,70.30
2018-07-12T02:06:27.939Z,70.80
2018-07-12T02:21:35.017Z,70.90
2018-07-12T02:26:37.224Z,70.50
2018-07-12T02:31:39.427Z,69.90
2018-07-12T02:41:44.050Z,70.00
2018-07-12T02:46:46.224Z,71.30
2018-07-12T03:01:53.343Z,70.40
2018-07-12T03:06:55.514Z,70.70
2018-07-12T03:11:57.700Z,70.90
2018-07-12T03:16:59.896Z,70.90
2018-07-12T03:22:02.059Z,71.10
2018-07-12T03:27:04.231Z,71.00
2018-07-12T03:32:06.404Z,71.20
2018-07-12T03:37:08.591Z,71.20
2018-07-12T03:42:10.778Z,71.30
2018-07-12T03:47:12.978Z,71.50
2018-07-12T03:52:15.155Z,71.50
2018-07-12T03:57:17.340Z,71.40
2018-07-12T04:07:22.017Z,71.90
2018-07-12T04:12:24.199Z,72.20
2018-07-12T04:17:29.894Z,72.50
2018-07-12T04:22:33.256Z,72.40
2018-07-12T04:27:35.439Z,72.30
2018-07-12T04:32:37.620Z,72.30
2018-07-12T04:42:42.288Z,72.90
2018-07-12T04:47:44.455Z,72.70
2018-07-12T04:52:46.627Z,72.60
2018-07-12T04:57:48.812Z,73.00
2018-07-12T05:07:53.440Z,73.50
2018-07-12T05:12:55.647Z,73.80
2018-07-12T05:17:57.831Z,73.40
2018-07-12T05:23:00.025Z,73.00
2018-07-12T05:28:02.205Z,73.20
2018-07-12T05:33:04.387Z,73.30
2018-07-12T05:38:07.499Z,73.10
2018-07-12T05:43:10.603Z,73.10
2018-07-12T05:48:13.945Z,76.30
2018-07-12T05:53:18.339Z,76.00
2018-07-12T05:58:21.553Z,74.30
2018-07-12T06:03:24.698Z,74.00
2018-07-12T06:08:27.811Z,74.80
2018-07-12T06:13:30.911Z,74.80
2018-07-12T06:18:34.078Z,75.20
2018-07-12T06:23:37.264Z,75.10
2018-07-12T06:28:40.399Z,73.80
2018-07-12T06:33:43.519Z,79.60
2018-07-12T06:38:47.298Z,76.70
2018-07-12T06:43:57.097Z,77.20
2018-07-12T06:49:00.293Z,74.20
2018-07-12T06:54:03.363Z,77.30
2018-07-12T06:59:06.471Z,77.80
2018-07-12T07:04:09.557Z,74.90
2018-07-12T07:09:12.682Z,76.00
2018-07-12T07:14:15.899Z,75.50
2018-07-12T07:19:19.027Z,75.20
2018-07-12T07:24:22.203Z,76.30
2018-07-12T07:29:25.358Z,75.90
2018-07-12T07:34:28.531Z,75.90
2018-07-12T07:39:32.147Z,76.70
2018-07-12T07:49:38.160Z,73.40
2018-07-12T07:54:41.276Z,74.70
2018-07-12T07:59:44.578Z,74.30
2018-07-12T08:04:47.731Z,73.60
2018-07-12T08:09:50.871Z,73.00
2018-07-12T08:14:53.959Z,71.30
2018-07-12T08:19:57.067Z,71.10
2018-07-12T08:25:00.175Z,69.20
2018-07-12T08:30:03.359Z,68.80
2018-07-12T08:35:06.435Z,68.90
2018-07-12T08:40:09.531Z,69.60
2018-07-12T08:45:12.667Z,67.00
2018-07-12T08:50:15.886Z,68.30
2018-07-12T08:55:19.105Z,68.50
2018-07-12T09:00:22.240Z,66.90
2018-07-12T09:05:25.489Z,66.30
2018-07-12T09:10:28.590Z,64.50
2018-07-12T09:15:31.670Z,63.60
2018-07-12T09:20:34.787Z,63.10
2018-07-12T09:25:37.924Z,64.30
2018-07-12T09:30:41.064Z,63.00
2018-07-12T09:35:44.171Z,62.70
2018-07-12T09:40:47.295Z,61.40
2018-07-12T09:45:50.459Z,61.50
2018-07-12T09:50:53.599Z,59.60
2018-07-12T09:55:56.690Z,59.40
2018-07-12T10:01:05.195Z,59.50
2018-07-12T10:06:13.709Z,58.30
2018-07-12T10:11:22.127Z,57.40
2018-07-12T10:16:30.647Z,57.80
2018-07-12T10:26:36.630Z,56.90
2018-07-12T10:31:39.780Z,56.20
2018-07-12T10:36:42.890Z,55.80
2018-07-12T10:41:46.076Z,53.90
2018-07-12T10:46:49.194Z,54.00
2018-07-12T10:51:52.361Z,54.40
2018-07-12T11:01:58.356Z,53.60
2018-07-12T11:07:01.476Z,52.70
2018-07-12T11:12:04.640Z,50.50
2018-07-12T11:17:07.728Z,51.00
2018-07-12T11:22:10.836Z,51.60
2018-07-12T11:27:13.957Z,50.10
2018-07-12T11:32:17.102Z,48.60
2018-07-12T11:37:25.187Z,48.90
2018-07-12T11:42:28.327Z,48.20
2018-07-12T11:47:31.419Z,48.50
2018-07-12T11:52:34.637Z,48.20
2018-07-12T11:57:37.731Z,47.20
2018-07-12T12:02:40.918Z,47.80
2018-07-12T12:07:44.008Z,47.70
2018-07-12T12:12:47.161Z,48.60
2018-07-12T12:17:50.271Z,48.20
2018-07-12T12:22:53.465Z,48.00
2018-07-12T12:27:57.091Z,45.40
2018-07-12T12:33:00.284Z,46.70
2018-07-12T12:38:03.362Z,45.70
2018-07-12T12:43:06.545Z,45.50
2018-07-12T12:48:09.639Z,46.00
2018-07-12T12:53:12.772Z,45.40
2018-07-12T12:58:16.544Z,45.90
2018-07-12T13:03:19.699Z,46.10
2018-07-12T13:08:22.839Z,46.10
2018-07-12T13:13:26.003Z,46.30
2018-07-12T13:18:29.140Z,47.00
2018-07-12T13:23:32.260Z,46.60
2018-07-12T13:28:35.509Z,47.00
2018-07-12T13:33:38.598Z,47.10
2018-07-12T13:38:41.727Z,47.60
2018-07-12T13:43:44.819Z,47.00
2018-07-12T13:48:47.932Z,47.00
2018-07-12T13:53:51.035Z,46.40
2018-07-12T13:58:54.200Z,46.20
2018-07-12T14:03:57.296Z,46.00
2018-07-12T14:09:00.428Z,45.60
2018-07-12T14:14:03.766Z,44.70
2018-07-12T14:19:06.944Z,43.80
2018-07-12T14:24:10.021Z,43.10
2018-07-12T14:34:15.979Z,43.20
2018-07-12T14:39:19.086Z,44.00
2018-07-12T14:44:22.191Z,43.80
2018-07-12T14:49:25.391Z,43.70
2018-07-12T14:54:28.590Z,44.50
2018-07-12T14:59:31.695Z,44.40
2018-07-12T15:04:34.812Z,44.80
2018-07-12T15:09:37.919Z,44.50
2018-07-12T15:14:41.047Z,44.30
2018-07-12T15:19:44.177Z,44.70
2018-07-12T15:24:47.379Z,43.90
2018-07-12T15:29:50.488Z,44.00
2018-07-12T15:34:53.616Z,44.00
2018-07-12T15:39:57.814Z,45.10
2018-07-12T15:55:07.307Z,44.80
2018-07-12T16:00:10.480Z,45.70
2018-07-12T16:05:13.688Z,45.60
2018-07-12T16:10:16.801Z,45.00
2018-07-12T16:15:19.899Z,45.60
2018-07-12T16:20:23.067Z,44.80
2018-07-12T16:25:26.199Z,44.40
2018-07-12T16:35:32.421Z,44.40
2018-07-12T16:40:35.519Z,44.80
2018-07-12T16:45:38.640Z,44.10
2018-07-12T16:50:41.823Z,44.70
2018-07-12T16:55:44.950Z,45.20
2018-07-12T17:00:48.132Z,44.90
2018-07-12T17:05:51.251Z,44.70
2018-07-12T17:10:54.966Z,44.40
2018-07-12T17:15:58.115Z,45.00
2018-07-12T17:21:01.263Z,44.20
2018-07-12T17:26:04.432Z,44.90
2018-07-12T17:31:07.527Z,44.50
2018-07-12T17:36:10.644Z,44.70
2018-07-12T17:41:13.845Z,45.00
2018-07-12T17:46:17.823Z,45.70
2018-07-12T17:51:20.984Z,46.00
2018-07-12T17:56:24.092Z,46.10
2018-07-12T18:01:27.203Z,46.30
2018-07-12T18:06:30.303Z,46.30
2018-07-12T18:11:33.620Z,46.30
2018-07-12T18:16:36.711Z,46.40
2018-07-12T18:21:39.847Z,46.50
2018-07-12T18:26:42.955Z,46.70
2018-07-12T18:31:46.081Z,47.20
2018-07-12T18:36:49.180Z,47.20
2018-07-12T18:41:52.299Z,47.10
2018-07-12T18:46:55.487Z,47.40
2018-07-12T18:52:00.769Z,47.70
2018-07-12T18:57:03.907Z,48.30
2018-07-12T19:02:07.006Z,48.00
2018-07-12T19:07:10.110Z,48.10
2018-07-12T19:12:13.211Z,48.30
2018-07-12T19:17:16.303Z,48.30
2018-07-12T19:27:22.296Z,48.70
2018-07-12T19:32:25.396Z,48.60
2018-07-12T19:37:28.512Z,48.70
2018-07-12T19:42:31.616Z,48.90
2018-07-12T19:47:34.687Z,49.10
2018-07-12T19:52:37.783Z,49.30
2018-07-12T19:57:40.908Z,49.40
2018-07-12T20:02:44.007Z,49.40
2018-07-12T20:07:47.143Z,49.40
2018-07-12T20:12:50.248Z,49.30
2018-07-12T20:17:54.050Z,49.30
2018-07-12T20:22:57.240Z,49.60
2018-07-12T20:28:00.322Z,49.80
2018-07-12T20:33:03.479Z,50.20
2018-07-12T20:38:06.587Z,50.30
2018-07-12T20:43:14.871Z,50.30
2018-07-12T20:48:18.200Z,50.70
2018-07-12T20:53:21.283Z,51.40
2018-07-12T20:58:24.450Z,52.00
2018-07-12T21:03:27.640Z,52.40
2018-07-12T21:08:30.747Z,52.90
2018-07-12T21:13:34.110Z,52.90
2018-07-12T21:18:37.215Z,53.20
2018-07-12T21:23:40.351Z,53.40
2018-07-12T21:28:43.455Z,53.70
2018-07-12T21:33:46.548Z,54.00
2018-07-12T21:38:49.662Z,54.20
2018-07-12T21:43:52.758Z,54.40
2018-07-12T21:48:55.853Z,54.60
2018-07-12T21:53:59.162Z,54.80
2018-07-12T22:04:11.843Z,55.00
2018-07-12T22:09:14.969Z,55.20
2018-07-12T22:14:18.081Z,55.20
2018-07-12T22:19:21.187Z,55.40
2018-07-12T22:29:27.202Z,55.50
2018-07-12T22:34:30.312Z,55.60
2018-07-12T22:39:33.406Z,55.60
2018-07-12T22:44:37.307Z,55.80
2018-07-12T22:49:40.439Z,56.00
2018-07-12T22:59:46.419Z,56.30
2018-07-12T23:04:49.568Z,56.30
2018-07-12T23:09:52.746Z,56.60
2018-07-12T23:14:55.965Z,56.40
2018-07-12T23:19:59.091Z,56.70
2018-07-12T23:30:05.206Z,56.70
2018-07-12T23:35:08.340Z,57.10
2018-07-12T23:40:11.449Z,57.20
2018-07-12T23:45:14.571Z,57.20
2018-07-12T23:50:17.656Z,57.50
2018-07-12T23:55:20.760Z,57.60
